Time;durP1;ratioP1;P1;durP2;ratioP2;P2;SDS_P1;SDS_P2;PMS_P1;PMS_P2;Temp;Humidity;BMP_temperature;BMP_pressure;BME280_temperature;BME280_humidity;BME280_pressure;Samples;Min_cycle;Max_cycle;Signal;HPM_P1;HPM_P2
2021/03/14 00:02:14;;;;;;;10.93;4.17;;;9.80;99.90;;;;;;4972919;28;20210;-74
2021/03/14 00:04:42;;;;;;;11.77;3.07;;;9.80;99.90;;;;;;4972662;28;20288;-73
2021/03/14 00:07:08;;;;;;;12.07;2.87;;;9.70;99.90;;;;;;4972200;28;20549;-74
2021/03/14 00:09:35;;;;;;;7.17;2.30;;;9.70;99.90;;;;;;4972475;28;20206;-74
2021/03/14 00:12:01;;;;;;;9.20;2.70;;;9.60;99.90;;;;;;4972175;28;20214;-75
2021/03/14 00:14:28;;;;;;;6.57;1.70;;;9.60;99.90;;;;;;4972374;28;20214;-73
2021/03/14 00:16:55;;;;;;;5.07;2.13;;;9.50;99.90;;;;;;4972247;28;20209;-73
2021/03/14 00:19:21;;;;;;;8.63;2.40;;;9.60;99.90;;;;;;4972092;28;20701;-73
2021/03/14 00:21:48;;;;;;;9.83;2.13;;;9.60;99.90;;;;;;4973004;28;20674;-75
2021/03/14 00:24:15;;;;;;;8.87;2.47;;;9.50;99.90;;;;;;4972269;28;20276;-72
2021/03/14 00:26:42;;;;;;;6.60;3.07;;;9.60;99.90;;;;;;4972355;28;20212;-73
2021/03/14 00:29:09;;;;;;;6.03;2.40;;;9.60;99.90;;;;;;4972139;28;20293;-73
2021/03/14 00:31:36;;;;;;;4.27;1.67;;;9.50;99.90;;;;;;4972347;28;20309;-73
2021/03/14 00:34:02;;;;;;;6.27;2.30;;;9.60;99.90;;;;;;4971619;28;20221;-73
2021/03/14 00:36:29;;;;;;;11.20;2.40;;;9.60;99.90;;;;;;4972106;28;20213;-75
2021/03/14 00:38:56;;;;;;;8.40;2.47;;;9.50;99.90;;;;;;4971289;28;20228;-75
2021/03/14 00:41:23;;;;;;;7.83;2.40;;;9.50;99.90;;;;;;4971542;28;20210;-74
2021/03/14 00:43:49;;;;;;;7.33;2.80;;;9.50;99.90;;;;;;4971287;28;20205;-74
2021/03/14 00:46:16;;;;;;;9.63;2.70;;;9.60;99.90;;;;;;4971481;28;20213;-75
2021/03/14 00:48:42;;;;;;;9.77;3.80;;;9.50;99.90;;;;;;4971133;28;20209;-76
2021/03/14 00:51:09;;;;;;;6.97;3.13;;;9.50;99.90;;;;;;4970826;28;20221;-73
2021/03/14 00:53:35;;;;;;;6.97;2.63;;;9.50;99.90;;;;;;4971298;28;20209;-76
2021/03/14 00:56:03;;;;;;;9.07;3.40;;;9.60;99.90;;;;;;4971171;28;20261;-74
2021/03/14 00:58:29;;;;;;;7.00;2.63;;;9.60;99.90;;;;;;4971266;28;20209;-78
2021/03/14 01:00:56;;;;;;;13.97;3.73;;;9.60;99.90;;;;;;4970735;28;20256;-75
2021/03/14 01:03:22;;;;;;;16.30;4.10;;;9.60;99.90;;;;;;4970814;28;20213;-74
2021/03/14 01:05:49;;;;;;;10.73;3.53;;;9.60;99.90;;;;;;4970588;28;20233;-74
2021/03/14 01:08:17;;;;;;;10.93;2.93;;;9.50;99.90;;;;;;4970950;28;20628;-75
2021/03/14 01:10:44;;;;;;;14.17;4.13;;;9.50;99.90;;;;;;4971523;28;20210;-74
2021/03/14 01:13:12;;;;;;;19.53;4.43;;;9.50;99.90;;;;;;4970421;28;20741;-75
2021/03/14 01:15:38;;;;;;;8.70;3.80;;;9.50;99.90;;;;;;4970867;28;20592;-75
2021/03/14 01:18:05;;;;;;;12.07;4.00;;;9.50;99.90;;;;;;4970272;28;20670;-74
2021/03/14 01:20:32;;;;;;;19.00;3.97;;;9.50;99.90;;;;;;4970772;28;20240;-76
2021/03/14 01:22:58;;;;;;;13.57;4.67;;;9.50;99.90;;;;;;4969442;28;20211;-77
2021/03/14 01:25:25;;;;;;;14.87;4.17;;;9.50;99.90;;;;;;4971027;28;20237;-74
2021/03/14 01:27:51;;;;;;;14.73;4.60;;;9.50;99.90;;;;;;4970330;28;20633;-73
2021/03/14 01:30:20;;;;;;;10.23;3.27;;;9.50;99.90;;;;;;4970989;28;20557;-73
2021/03/14 01:32:47;;;;;;;15.83;4.50;;;9.40;99.90;;;;;;4968993;28;20211;-77
2021/03/14 01:35:15;;;;;;;11.37;4.03;;;9.40;99.90;;;;;;4970634;28;20213;-76
2021/03/14 01:37:41;;;;;;;14.33;4.03;;;9.40;99.90;;;;;;4948862;28;637274;-75
2021/03/14 01:40:09;;;;;;;15.80;2.97;;;9.40;99.90;;;;;;4970962;28;20210;-76
2021/03/14 01:42:36;;;;;;;16.97;3.83;;;9.40;99.90;;;;;;4971627;28;20248;-76
2021/03/14 01:45:05;;;;;;;13.50;4.30;;;9.50;99.90;;;;;;4970781;28;20248;-76
2021/03/14 01:47:35;;;;;;;17.73;3.90;;;9.50;99.90;;;;;;4971314;28;20584;-75
2021/03/14 01:50:04;;;;;;;11.33;3.93;;;9.50;99.90;;;;;;4971205;28;20214;-76
2021/03/14 01:52:32;;;;;;;17.43;3.90;;;9.50;99.90;;;;;;4971849;28;20220;-76
2021/03/14 01:54:58;;;;;;;17.67;4.17;;;9.50;99.90;;;;;;4971215;28;20213;-76
2021/03/14 01:57:26;;;;;;;15.30;4.47;;;9.50;99.90;;;;;;4971244;28;20685;-76
2021/03/14 01:59:52;;;;;;;12.17;3.20;;;9.50;99.90;;;;;;4970641;28;20592;-76
2021/03/14 02:02:19;;;;;;;10.77;3.13;;;9.40;99.90;;;;;;4971371;28;20209;-75
2021/03/14 02:04:46;;;;;;;8.60;2.70;;;9.50;99.90;;;;;;4971598;28;20233;-76
2021/03/14 02:07:14;;;;;;;11.83;3.40;;;9.50;99.90;;;;;;4970675;28;20225;-77
2021/03/14 02:09:40;;;;;;;19.83;3.67;;;9.40;99.90;;;;;;4971400;28;20206;-78
2021/03/14 02:12:10;;;;;;;12.17;3.83;;;9.50;99.90;;;;;;4970991;28;20217;-77
2021/03/14 02:14:38;;;;;;;12.10;3.77;;;9.40;99.90;;;;;;4970825;28;20206;-78
2021/03/14 02:17:07;;;;;;;14.27;3.53;;;9.30;99.90;;;;;;4970893;28;20238;-75
2021/03/14 02:19:37;;;;;;;11.37;3.50;;;9.30;99.90;;;;;;4971006;28;20288;-77
2021/03/14 02:22:04;;;;;;;10.93;3.13;;;9.10;99.90;;;;;;4970667;28;20264;-76
2021/03/14 02:24:39;;;;;;;12.50;4.07;;;9.10;99.90;;;;;;4971236;28;20230;-75
2021/03/14 02:27:07;;;;;;;10.53;3.10;;;9.10;99.90;;;;;;4970427;28;20678;-75
2021/03/14 02:29:35;;;;;;;6.43;2.63;;;9.10;99.90;;;;;;4970884;28;20206;-76
2021/03/14 02:32:05;;;;;;;12.57;3.83;;;9.10;99.90;;;;;;4970692;28;20768;-75
2021/03/14 02:34:35;;;;;;;16.10;3.23;;;9.20;99.90;;;;;;4972365;28;20288;-75
2021/03/14 02:37:04;;;;;;;13.83;3.30;;;9.20;99.90;;;;;;4974547;28;20224;-76
2021/03/14 02:39:31;;;;;;;8.50;2.73;;;9.20;99.90;;;;;;4973777;28;20244;-74
2021/03/14 02:42:00;;;;;;;11.57;3.83;;;9.20;99.90;;;;;;4974520;28;20214;-76
2021/03/14 02:44:31;;;;;;;13.77;4.33;;;9.20;99.90;;;;;;4974275;28;20276;-75
2021/03/14 02:46:58;;;;;;;9.10;3.63;;;9.20;99.90;;;;;;4973864;28;20585;-76
2021/03/14 02:49:25;;;;;;;10.97;3.50;;;9.30;99.90;;;;;;4974275;28;20222;-76
2021/03/14 02:51:52;;;;;;;9.73;2.67;;;9.30;99.90;;;;;;4973491;28;20674;-73
2021/03/14 02:54:20;;;;;;;12.03;3.60;;;9.30;99.90;;;;;;4974753;28;20210;-74
2021/03/14 02:56:48;;;;;;;15.43;4.33;;;9.20;99.90;;;;;;4974193;28;20260;-73
2021/03/14 02:59:16;;;;;;;13.20;3.00;;;9.30;99.90;;;;;;4974113;28;20206;-78
2021/03/14 03:01:46;;;;;;;15.13;3.87;;;9.30;99.90;;;;;;4974037;28;20271;-76
2021/03/14 03:04:13;;;;;;;17.57;4.30;;;9.30;99.90;;;;;;4973455;28;20300;-75
2021/03/14 03:06:40;;;;;;;9.37;3.20;;;9.30;99.90;;;;;;4973771;28;20220;-75
2021/03/14 03:09:08;;;;;;;12.57;3.47;;;9.40;99.90;;;;;;4973895;28;20214;-74
2021/03/14 03:11:36;;;;;;;13.10;4.63;;;9.40;99.90;;;;;;4973947;28;20213;-75
2021/03/14 03:14:03;;;;;;;17.00;4.77;;;9.40;99.90;;;;;;4973182;28;20202;-74
2021/03/14 03:16:29;;;;;;;19.53;4.03;;;9.40;99.90;;;;;;4974035;28;20209;-76
2021/03/14 03:18:58;;;;;;;13.03;3.87;;;9.40;99.90;;;;;;4973195;28;20674;-76
2021/03/14 03:21:26;;;;;;;8.87;3.57;;;9.40;99.90;;;;;;4973991;28;20209;-76
2021/03/14 03:23:53;;;;;;;19.37;4.10;;;9.50;99.90;;;;;;4973366;28;20221;-76
2021/03/14 03:26:20;;;;;;;10.60;3.60;;;9.40;99.90;;;;;;4973734;28;20233;-77
2021/03/14 03:28:49;;;;;;;17.97;4.07;;;9.40;99.90;;;;;;4973744;28;20764;-74
2021/03/14 03:31:16;;;;;;;18.67;4.23;;;9.50;99.90;;;;;;4973452;28;20209;-74
2021/03/14 03:33:42;;;;;;;17.37;4.37;;;9.40;99.90;;;;;;4973531;28;20217;-74
2021/03/14 03:36:10;;;;;;;12.83;3.67;;;9.40;99.90;;;;;;4973022;28;20276;-74
2021/03/14 03:38:37;;;;;;;11.57;3.57;;;9.40;99.90;;;;;;4973457;28;20228;-75
2021/03/14 03:41:04;;;;;;;19.07;4.63;;;9.50;99.90;;;;;;4972619;28;20217;-75
2021/03/14 03:43:33;;;;;;;12.20;3.50;;;9.40;99.90;;;;;;4973387;28;20202;-75
2021/03/14 03:46:02;;;;;;;9.27;2.97;;;9.40;99.90;;;;;;4972025;28;20233;-74
2021/03/14 03:48:33;;;;;;;20.27;5.53;;;9.50;99.90;;;;;;4973131;28;20213;-75
2021/03/14 03:51:02;;;;;;;11.47;3.00;;;9.50;99.90;;;;;;4972789;28;20209;-75
2021/03/14 03:53:30;;;;;;;25.90;4.50;;;9.50;99.90;;;;;;4972981;28;20202;-74
2021/03/14 03:55:57;;;;;;;18.30;4.30;;;9.50;99.90;;;;;;4972409;28;20638;-74
2021/03/14 03:58:26;;;;;;;11.57;3.50;;;9.50;99.90;;;;;;4973005;28;20214;-75
2021/03/14 04:00:54;;;;;;;8.80;2.87;;;9.40;99.90;;;;;;4972377;28;20206;-75
2021/03/14 04:03:21;;;;;;;8.63;3.70;;;9.20;99.90;;;;;;4972904;28;20235;-74
2021/03/14 04:05:49;;;;;;;10.23;3.00;;;8.90;99.90;;;;;;4973396;28;20233;-74
2021/03/14 04:08:17;;;;;;;14.97;3.30;;;8.50;99.90;;;;;;4973027;28;20256;-75
2021/03/14 04:10:45;;;;;;;9.30;3.93;;;8.30;99.90;;;;;;4972584;28;20213;-73
2021/03/14 04:13:12;;;;;;;9.20;2.60;;;8.10;99.90;;;;;;4972173;28;20217;-74
2021/03/14 04:15:40;;;;;;;10.20;2.50;;;8.10;99.90;;;;;;4972712;28;20610;-75
2021/03/14 04:18:08;;;;;;;9.03;2.17;;;8.20;99.90;;;;;;4972519;28;20257;-74
2021/03/14 04:20:38;;;;;;;10.17;2.90;;;8.10;99.90;;;;;;4972261;28;20592;-75
2021/03/14 04:23:10;;;;;;;6.47;3.23;;;8.20;99.90;;;;;;4972027;28;20674;-75
2021/03/14 04:25:37;;;;;;;10.73;3.10;;;8.20;99.90;;;;;;4972302;28;20233;-74
2021/03/14 04:28:06;;;;;;;14.77;4.53;;;8.30;99.90;;;;;;4972105;28;20253;-75
2021/03/14 04:30:33;;;;;;;14.63;3.43;;;8.30;99.90;;;;;;4972423;28;20213;-75
2021/03/14 04:33:00;;;;;;;10.80;3.97;;;8.30;99.90;;;;;;4972101;28;20206;-70
2021/03/14 04:35:28;;;;;;;11.80;4.43;;;8.30;99.90;;;;;;4972528;28;20214;-74
2021/03/14 04:37:55;;;;;;;14.70;5.57;;;8.30;99.90;;;;;;4971865;28;20218;-74
2021/03/14 04:40:22;;;;;;;11.33;3.10;;;8.30;99.90;;;;;;4971835;28;20205;-76
2021/03/14 04:42:50;;;;;;;13.20;3.70;;;8.30;99.90;;;;;;4972291;28;20248;-74
2021/03/14 04:45:19;;;;;;;19.63;4.23;;;8.30;99.90;;;;;;4972725;28;20240;-76
2021/03/14 04:47:46;;;;;;;10.07;4.07;;;8.20;99.90;;;;;;4972599;28;20596;-74
2021/03/14 04:50:15;;;;;;;11.60;4.13;;;8.20;99.90;;;;;;4971571;28;20601;-74
2021/03/14 04:52:44;;;;;;;12.77;3.73;;;8.30;99.90;;;;;;4971868;28;20213;-76
2021/03/14 04:55:13;;;;;;;12.73;3.87;;;8.30;99.90;;;;;;4971034;28;20600;-74
2021/03/14 04:57:41;;;;;;;20.53;4.97;;;8.30;99.90;;;;;;4971792;28;20209;-76
2021/03/14 05:00:11;;;;;;;12.93;3.73;;;8.30;99.90;;;;;;4971236;28;20213;-78
2021/03/14 05:02:41;;;;;;;18.10;4.17;;;8.20;99.90;;;;;;4972127;28;20221;-78
2021/03/14 05:05:11;;;;;;;14.20;3.77;;;8.20;99.90;;;;;;4971044;28;20229;-71
2021/03/14 05:07:41;;;;;;;18.20;3.83;;;8.10;99.90;;;;;;4971785;28;20253;-76
2021/03/14 05:10:10;;;;;;;12.47;3.60;;;8.10;99.90;;;;;;4971300;28;20209;-74
2021/03/14 05:12:40;;;;;;;16.40;4.37;;;8.10;99.90;;;;;;4972082;28;20253;-75
2021/03/14 05:15:08;;;;;;;9.43;3.20;;;8.20;99.90;;;;;;4971600;28;20209;-80
2021/03/14 05:17:35;;;;;;;10.93;3.63;;;8.20;99.90;;;;;;4972071;28;20209;-78
2021/03/14 05:20:03;;;;;;;11.10;3.43;;;8.20;99.90;;;;;;4971164;28;20210;-78
2021/03/14 05:22:29;;;;;;;10.83;3.43;;;8.20;99.90;;;;;;4971480;28;20209;-78
2021/03/14 05:24:58;;;;;;;10.60;3.47;;;8.20;99.90;;;;;;4971128;28;20229;-76
2021/03/14 05:27:25;;;;;;;12.83;3.17;;;8.30;99.90;;;;;;4971297;28;20256;-74
2021/03/14 05:29:52;;;;;;;13.77;3.60;;;8.20;99.90;;;;;;4971126;28;20201;-77
2021/03/14 05:32:18;;;;;;;16.00;4.07;;;8.20;99.90;;;;;;4971619;28;20728;-76
2021/03/14 05:34:45;;;;;;;9.80;3.53;;;8.20;99.90;;;;;;4972249;28;20209;-76
2021/03/14 05:37:12;;;;;;;7.37;3.00;;;8.30;99.90;;;;;;4971183;28;20567;-75
2021/03/14 05:39:38;;;;;;;17.03;3.33;;;8.30;99.90;;;;;;4958035;28;20268;-76
2021/03/14 05:42:06;;;;;;;7.67;3.50;;;8.30;99.90;;;;;;4971215;28;20205;-78
2021/03/14 05:44:33;;;;;;;14.30;3.10;;;8.30;99.90;;;;;;4971439;28;20235;-76
2021/03/14 05:46:59;;;;;;;10.37;3.30;;;8.30;99.90;;;;;;4971160;28;20213;-75
2021/03/14 05:49:27;;;;;;;10.43;3.37;;;8.30;99.90;;;;;;4971511;28;20210;-81
2021/03/14 05:51:56;;;;;;;11.50;3.20;;;8.40;99.90;;;;;;4970847;28;20213;-72
2021/03/14 05:54:24;;;;;;;19.53;4.50;;;8.30;99.90;;;;;;4971648;28;20225;-78
2021/03/14 05:56:51;;;;;;;16.20;4.90;;;8.40;99.90;;;;;;4971110;28;20202;-72
2021/03/14 05:59:18;;;;;;;14.13;3.63;;;8.30;99.90;;;;;;4971807;28;20210;-76
2021/03/14 06:01:52;;;;;;;12.30;3.80;;;8.40;99.90;;;;;;4971162;28;20209;-73
2021/03/14 06:04:20;;;;;;;11.60;3.37;;;8.40;99.90;;;;;;4971537;28;20581;-72
2021/03/14 06:06:47;;;;;;;8.87;3.10;;;8.40;99.90;;;;;;4971017;28;20586;-78
2021/03/14 06:09:13;;;;;;;5.67;2.63;;;8.40;99.90;;;;;;4972245;28;20316;-71
2021/03/14 06:11:41;;;;;;;11.60;3.50;;;8.50;99.90;;;;;;4975010;28;20209;-74
2021/03/14 06:14:08;;;;;;;9.47;3.33;;;8.40;99.90;;;;;;4974511;28;20598;-74
2021/03/14 06:16:35;;;;;;;8.50;2.50;;;8.40;99.90;;;;;;4975110;28;20213;-77
2021/03/14 06:19:01;;;;;;;16.97;3.73;;;8.40;99.90;;;;;;4974332;28;20202;-76
2021/03/14 06:21:30;;;;;;;18.90;3.30;;;8.40;99.90;;;;;;4974879;28;20209;-77
2021/03/14 06:23:58;;;;;;;20.73;4.63;;;8.30;99.90;;;;;;4974200;28;20225;-79
2021/03/14 06:26:43;;;;;;;13.40;4.83;;;8.30;99.90;;;;;;4974750;28;20242;-70
2021/03/14 06:29:23;;;;;;;12.27;3.37;;;8.30;99.90;;;;;;4974059;28;20642;-79
2021/03/14 06:31:51;;;;;;;11.77;3.87;;;8.40;99.90;;;;;;4974711;28;20206;-74
2021/03/14 06:34:29;;;;;;;9.40;3.37;;;8.40;99.90;;;;;;4974652;28;20233;-75
2021/03/14 06:36:57;;;;;;;12.40;2.70;;;8.40;99.90;;;;;;4973835;28;20214;-76
2021/03/14 06:39:25;;;;;;;8.43;2.30;;;8.40;99.90;;;;;;4974044;28;20225;-78
2021/03/14 06:41:53;;;;;;;4.20;1.87;;;8.20;99.90;;;;;;4973917;28;20681;-77
2021/03/14 06:44:24;;;;;;;7.23;1.73;;;7.90;99.90;;;;;;4974450;28;20213;-75
2021/03/14 06:46:51;;;;;;;6.20;1.67;;;7.90;99.90;;;;;;4974278;28;20205;-74
2021/03/14 06:49:18;;;;;;;8.03;1.97;;;7.80;99.90;;;;;;4974636;28;20736;-74
2021/03/14 06:51:46;;;;;;;7.03;1.67;;;7.80;99.90;;;;;;4974209;28;20213;-71
2021/03/14 06:54:21;;;;;;;6.90;1.67;;;7.80;99.90;;;;;;4973796;28;20264;-72
2021/03/14 06:57:20;;;;;;;8.67;2.07;;;7.90;99.90;;;;;;4974287;28;20213;-73
2021/03/14 06:59:49;;;;;;;9.20;2.67;;;7.80;99.90;;;;;;4974159;28;20241;-73
2021/03/14 07:02:16;;;;;;;6.33;2.10;;;7.80;99.90;;;;;;4974061;28;20210;-77
2021/03/14 07:04:48;;;;;;;6.80;1.67;;;8.00;99.90;;;;;;4973935;28;20213;-77
2021/03/14 07:07:20;;;;;;;9.80;1.80;;;8.00;99.90;;;;;;4973758;28;20260;-75
2021/03/14 07:09:51;;;;;;;6.93;4.67;;;8.10;99.90;;;;;;4974081;28;20678;-76
2021/03/14 07:12:21;;;;;;;5.43;3.00;;;8.20;99.90;;;;;;4971748;28;20213;-72
2021/03/14 07:14:48;;;;;;;5.27;2.30;;;8.30;99.90;;;;;;4974232;28;20248;-74
2021/03/14 07:17:30;;;;;;;5.67;1.50;;;8.30;99.90;;;;;;4973402;28;20729;-74
2021/03/14 07:19:58;;;;;;;4.87;2.57;;;8.50;99.90;;;;;;4973110;28;20213;-75
2021/03/14 07:22:25;;;;;;;7.10;2.30;;;8.60;99.90;;;;;;4972474;28;20205;-74
2021/03/14 07:24:52;;;;;;;10.07;2.60;;;8.60;99.90;;;;;;4972990;28;20236;-73
2021/03/14 07:27:24;;;;;;;6.50;1.90;;;8.70;99.90;;;;;;4973446;28;20218;-73
2021/03/14 07:29:52;;;;;;;8.40;3.60;;;9.20;99.90;;;;;;4973551;28;20674;-74
2021/03/14 07:32:19;;;;;;;7.07;2.67;;;9.40;99.90;;;;;;4973462;28;20209;-73
2021/03/14 07:34:46;;;;;;;6.23;3.03;;;9.20;99.90;;;;;;4973684;28;20205;-74
2021/03/14 07:37:13;;;;;;;11.80;3.03;;;9.00;99.90;;;;;;4973155;28;20220;-78
2021/03/14 07:39:41;;;;;;;8.37;2.30;;;8.90;99.90;;;;;;4973014;28;20206;-76
2021/03/14 07:42:08;;;;;;;10.70;2.60;;;8.90;99.90;;;;;;4973230;28;20209;-76
2021/03/14 07:44:37;;;;;;;8.40;2.50;;;8.80;99.90;;;;;;4973166;28;20206;-73
2021/03/14 07:47:04;;;;;;;11.17;2.70;;;8.70;99.90;;;;;;4973079;28;20225;-76
2021/03/14 07:49:30;;;;;;;9.33;3.60;;;8.70;99.90;;;;;;4972862;28;20694;-77
2021/03/14 07:52:01;;;;;;;9.70;2.63;;;8.70;99.90;;;;;;4972597;28;20209;-75
2021/03/14 07:54:33;;;;;;;12.67;2.67;;;8.80;99.90;;;;;;4973023;28;20217;-72
2021/03/14 07:57:00;;;;;;;8.83;2.80;;;8.90;99.90;;;;;;4972524;28;20210;-71
2021/03/14 07:59:29;;;;;;;13.87;2.97;;;8.90;99.90;;;;;;4972960;28;20213;-73
2021/03/14 08:02:24;;;;;;;9.00;2.97;;;8.90;99.90;;;;;;4972184;28;20209;-73
2021/03/14 08:04:52;;;;;;;9.43;3.00;;;8.80;99.90;;;;;;4972170;28;20214;-73
2021/03/14 08:07:41;;;;;;;10.40;3.40;;;8.80;99.90;;;;;;4972517;28;20263;-73
2021/03/14 08:10:10;;;;;;;10.20;2.90;;;8.80;99.90;;;;;;4972133;28;20212;-73
2021/03/14 08:12:38;;;;;;;8.73;3.13;;;8.90;99.90;;;;;;4972998;28;20202;-79
2021/03/14 08:15:21;;;;;;;8.77;2.50;;;8.90;99.90;;;;;;4972571;28;20236;-77
2021/03/14 08:17:49;;;;;;;13.30;2.67;;;9.10;99.90;;;;;;4972918;28;20745;-76
2021/03/14 08:20:34;;;;;;;7.40;3.10;;;9.30;99.90;;;;;;4970447;28;20704;-76
2021/03/14 08:23:01;;;;;;;17.97;3.47;;;9.50;99.90;;;;;;4971870;28;20741;-76
2021/03/14 08:25:30;;;;;;;8.63;3.27;;;9.60;99.90;;;;;;4970630;28;20229;-76
2021/03/14 08:27:59;;;;;;;10.43;2.87;;;9.40;99.90;;;;;;4969860;28;20213;-75
2021/03/14 08:30:45;;;;;;;8.80;2.97;;;9.20;99.90;;;;;;4971981;28;20208;-73
2021/03/14 08:33:27;;;;;;;10.40;3.40;;;9.00;99.90;;;;;;4965773;28;20248;-75
2021/03/14 08:35:55;;;;;;;11.83;3.83;;;9.00;99.90;;;;;;4969466;28;20804;-72
2021/03/14 08:38:30;;;;;;;11.10;4.10;;;9.20;99.90;;;;;;4966983;28;20221;-73
2021/03/14 08:41:22;;;;;;;9.67;3.27;;;9.10;99.90;;;;;;4972104;28;20571;-75
2021/03/14 08:43:51;;;;;;;17.13;4.07;;;8.90;99.90;;;;;;4971872;28;20205;-72
2021/03/14 08:46:18;;;;;;;14.50;6.37;;;9.00;99.90;;;;;;4972075;28;20324;-73
2021/03/14 08:48:45;;;;;;;10.80;4.43;;;8.90;99.90;;;;;;4972331;28;20586;-73
2021/03/14 08:51:13;;;;;;;17.70;3.60;;;8.90;99.90;;;;;;4971922;28;20209;-77
2021/03/14 08:53:40;;;;;;;5.57;2.93;;;8.90;99.90;;;;;;4972170;28;20209;-79
2021/03/14 08:56:08;;;;;;;9.67;2.70;;;8.70;99.90;;;;;;4971894;28;20210;-77
2021/03/14 08:58:35;;;;;;;10.17;2.50;;;8.70;99.90;;;;;;4972141;28;20209;-80
2021/03/14 09:01:04;;;;;;;9.77;2.30;;;8.80;99.90;;;;;;4969511;28;20216;-76
2021/03/14 09:03:31;;;;;;;8.53;2.40;;;8.90;99.90;;;;;;4968609;28;20202;-75
2021/03/14 09:06:30;;;;;;;5.10;2.10;;;8.90;99.90;;;;;;4970736;28;20238;-81
2021/03/14 09:08:59;;;;;;;7.17;2.20;;;9.00;99.90;;;;;;4969136;28;20214;-77
2021/03/14 09:11:39;;;;;;;7.10;1.90;;;8.80;99.90;;;;;;4971034;28;20251;-78
2021/03/14 09:14:37;;;;;;;5.53;1.73;;;8.70;99.90;;;;;;4970153;28;20288;-78
2021/03/14 09:17:06;;;;;;;4.83;2.13;;;8.50;99.90;;;;;;4971356;28;20237;-72
2021/03/14 09:19:38;;;;;;;2.63;1.70;;;8.30;99.90;;;;;;4971660;28;20216;-77
2021/03/14 09:22:08;;;;;;;4.30;2.00;;;8.20;99.90;;;;;;4971285;28;20209;-78
2021/03/14 09:24:40;;;;;;;9.23;3.07;;;8.10;99.90;;;;;;4972052;28;20586;-81
2021/03/14 09:27:09;;;;;;;5.83;2.90;;;7.90;99.90;;;;;;4971413;28;20209;-79
2021/03/14 09:29:47;;;;;;;5.03;2.00;;;7.70;99.90;;;;;;4971633;28;20206;-76
2021/03/14 09:32:34;;;;;;;4.03;1.90;;;7.80;99.90;;;;;;4971432;28;20208;-76
2021/03/14 09:35:25;;;;;;;9.50;2.43;;;7.80;99.90;;;;;;4971202;28;20217;-74
2021/03/14 09:37:58;;;;;;;4.57;2.03;;;7.80;99.90;;;;;;4971024;28;20221;-71
2021/03/14 09:40:31;;;;;;;8.37;1.80;;;7.80;99.90;;;;;;4971243;28;20236;-74
2021/03/14 09:43:13;;;;;;;8.03;2.40;;;7.70;99.90;;;;;;4971157;28;20264;-76
2021/03/14 09:45:42;;;;;;;5.67;2.83;;;7.60;99.90;;;;;;4974507;28;20237;-77
2021/03/14 09:48:11;;;;;;;5.07;1.83;;;7.80;99.90;;;;;;4975014;28;20216;-75
2021/03/14 09:50:47;;;;;;;8.77;2.13;;;7.90;99.90;;;;;;4974359;28;20212;-75
2021/03/14 09:53:15;;;;;;;6.23;2.00;;;8.00;99.90;;;;;;4971738;28;20256;-75
2021/03/14 09:55:43;;;;;;;11.03;2.67;;;8.00;99.90;;;;;;4975382;28;20209;-75
2021/03/14 09:58:11;;;;;;;2.73;1.97;;;8.00;99.90;;;;;;4974661;28;20216;-76
2021/03/14 10:00:38;;;;;;;8.10;2.03;;;7.80;99.90;;;;;;4975509;28;20595;-74
2021/03/14 10:03:07;;;;;;;6.47;2.27;;;7.50;99.90;;;;;;4975042;28;20213;-75
2021/03/14 10:05:45;;;;;;;7.93;2.83;;;7.30;99.90;;;;;;4975078;28;20389;-74
2021/03/14 10:08:17;;;;;;;8.50;2.80;;;7.40;99.90;;;;;;4974732;28;20213;-75
2021/03/14 10:10:45;;;;;;;4.13;2.40;;;7.50;99.90;;;;;;4975078;28;20213;-77
2021/03/14 10:13:12;;;;;;;4.10;1.67;;;7.30;99.90;;;;;;4974548;28;20218;-74
2021/03/14 10:15:40;;;;;;;3.07;1.30;;;7.30;99.90;;;;;;4974913;28;20944;-77
2021/03/14 10:18:08;;;;;;;4.63;1.90;;;7.40;99.90;;;;;;4974655;28;20231;-76
2021/03/14 10:20:36;;;;;;;1.87;1.00;;;7.60;99.90;;;;;;4974628;28;20591;-76
2021/03/14 10:23:04;;;;;;;1.60;0.90;;;7.70;99.90;;;;;;4974501;28;20209;-74
2021/03/14 10:25:34;;;;;;;1.23;0.80;;;7.60;99.90;;;;;;4974762;28;20241;-74
2021/03/14 10:28:09;;;;;;;4.23;1.60;;;7.50;99.90;;;;;;4974453;28;20209;-75
2021/03/14 10:30:37;;;;;;;2.67;1.07;;;7.80;99.90;;;;;;4974751;28;20212;-74
2021/03/14 10:33:04;;;;;;;6.40;1.47;;;8.10;99.90;;;;;;4974690;28;20268;-74
2021/03/14 10:35:31;;;;;;;3.90;1.30;;;8.10;99.90;;;;;;4974662;28;20209;-74
2021/03/14 10:37:57;;;;;;;5.10;1.23;;;9.10;99.90;;;;;;4974291;28;20221;-75
2021/03/14 10:40:25;;;;;;;3.57;2.47;;;9.60;99.90;;;;;;4974306;28;20210;-75
2021/03/14 10:42:53;;;;;;;6.93;2.67;;;9.40;99.90;;;;;;4973652;28;20205;-73
2021/03/14 10:45:21;;;;;;;9.47;3.40;;;9.40;99.90;;;;;;4974466;28;20724;-76
2021/03/14 10:48:00;;;;;;;6.03;3.60;;;10.00;99.90;;;;;;4974910;28;20209;-74
2021/03/14 10:50:29;;;;;;;3.47;1.80;;;10.40;99.90;;;;;;4973641;28;20264;-75
2021/03/14 10:53:14;;;;;;;4.83;1.83;;;10.60;99.90;;;;;;4973815;28;20206;-76
2021/03/14 10:55:42;;;;;;;7.33;3.10;;;11.20;99.90;;;;;;4973932;28;20260;-77
2021/03/14 10:58:14;;;;;;;12.77;6.40;;;10.80;99.90;;;;;;4973496;28;20217;-78
2021/03/14 11:00:44;;;;;;;4.97;3.00;;;11.10;99.90;;;;;;4974236;28;20209;-78
2021/03/14 11:03:27;;;;;;;6.53;2.67;;;11.40;99.90;;;;;;4973864;28;20205;-78
2021/03/14 11:06:10;;;;;;;7.07;2.70;;;11.90;99.90;;;;;;4971466;28;20312;-80
2021/03/14 11:08:54;;;;;;;4.90;1.87;;;12.30;99.90;;;;;;4974104;28;20209;-80
2021/03/14 11:11:23;;;;;;;8.27;7.47;;;11.90;99.90;;;;;;4969378;28;20225;-80
2021/03/14 11:13:51;;;;;;;7.40;6.23;;;11.50;99.90;;;;;;4970982;28;20206;-78
2021/03/14 11:16:18;;;;;;;4.57;1.50;;;11.60;99.90;;;;;;4973906;28;20214;-75
2021/03/14 11:18:56;;;;;;;4.33;2.00;;;11.50;99.90;;;;;;4973898;28;20213;-78
2021/03/14 11:21:22;;;;;;;5.17;2.37;;;11.30;99.90;;;;;;4973658;28;20381;-78
2021/03/14 11:23:49;;;;;;;3.20;0.93;;;11.30;99.90;;;;;;4972020;28;20206;-73
2021/03/14 11:26:15;;;;;;;2.00;1.10;;;11.00;99.90;;;;;;4971408;28;20241;-79
2021/03/14 11:28:46;;;;;;;3.67;1.03;;;10.70;99.90;;;;;;4973246;28;20206;-78
2021/03/14 11:31:14;;;;;;;1.90;0.87;;;10.90;99.90;;;;;;4966033;28;20209;-75
2021/03/14 11:33:40;;;;;;;2.37;1.20;;;10.80;99.90;;;;;;4973203;28;20212;-83
2021/03/14 11:36:07;;;;;;;1.17;0.60;;;10.80;99.90;;;;;;4972212;28;20233;-79
2021/03/14 11:38:33;;;;;;;4.93;1.30;;;10.70;99.90;;;;;;4973256;28;20627;-79
2021/03/14 11:41:00;;;;;;;9.53;1.53;;;11.10;99.90;;;;;;4972932;28;20280;-81
2021/03/14 11:43:27;;;;;;;4.47;0.80;;;11.80;99.90;;;;;;4973014;28;20284;-82
2021/03/14 11:45:53;;;;;;;5.17;2.53;;;11.90;99.90;;;;;;4973161;28;20237;-78
2021/03/14 11:48:20;;;;;;;2.67;1.40;;;11.50;99.90;;;;;;4973312;28;20228;-80
2021/03/14 11:50:47;;;;;;;2.50;1.30;;;11.50;99.90;;;;;;4973441;28;20265;-82
2021/03/14 11:53:13;;;;;;;3.27;1.30;;;11.30;99.90;;;;;;4972873;28;20214;-81
2021/03/14 11:55:40;;;;;;;3.63;1.10;;;11.40;99.90;;;;;;4972988;28;20212;-78
2021/03/14 11:58:06;;;;;;;4.63;1.37;;;11.50;99.90;;;;;;4972920;28;20209;-81
2021/03/14 12:00:33;;;;;;;3.13;0.87;;;11.60;99.90;;;;;;4959849;28;20237;-80
2021/03/14 12:02:59;;;;;;;4.97;1.40;;;11.70;99.90;;;;;;4972859;28;20212;-81
2021/03/14 12:05:26;;;;;;;2.27;1.43;;;11.60;99.90;;;;;;4973027;28;20229;-76
2021/03/14 12:07:53;;;;;;;3.97;3.07;;;11.60;99.90;;;;;;4971681;28;20628;-81
2021/03/14 12:10:19;;;;;;;3.20;1.60;;;11.70;99.90;;;;;;4967856;28;20229;-77
2021/03/14 12:12:46;;;;;;;6.23;2.60;;;11.90;99.90;;;;;;4973587;28;20209;-79
2021/03/14 12:15:14;;;;;;;5.50;1.70;;;11.80;99.90;;;;;;4972137;28;20218;-81
2021/03/14 12:17:40;;;;;;;2.27;1.10;;;11.30;99.90;;;;;;4971991;28;20216;-80
2021/03/14 12:20:08;;;;;;;1.93;1.30;;;11.10;99.90;;;;;;4971419;28;20221;-80
2021/03/14 12:22:35;;;;;;;2.93;1.03;;;11.20;99.90;;;;;;4972545;28;20210;-76
2021/03/14 12:25:04;;;;;;;4.93;1.33;;;11.20;99.90;;;;;;4971885;28;20213;-76
2021/03/14 12:27:31;;;;;;;3.80;1.40;;;11.10;99.90;;;;;;4972447;28;20289;-75
2021/03/14 12:29:57;;;;;;;3.37;1.57;;;11.50;99.90;;;;;;4972360;28;20206;-77
2021/03/14 12:32:23;;;;;;;5.13;1.97;;;11.80;99.90;;;;;;4972423;28;20213;-77
2021/03/14 12:34:50;;;;;;;7.77;2.37;;;12.20;99.90;;;;;;4970857;28;20276;-79
2021/03/14 12:37:16;;;;;;;6.83;1.30;;;12.60;99.90;;;;;;4972409;28;20217;-78
2021/03/14 12:39:44;;;;;;;6.90;1.57;;;12.90;99.90;;;;;;4971861;28;20209;-78
2021/03/14 12:42:10;;;;;;;5.90;2.30;;;12.90;99.90;;;;;;4972400;28;20265;-77
2021/03/14 12:44:37;;;;;;;7.73;1.77;;;13.00;99.90;;;;;;4972249;28;20210;-79
2021/03/14 12:47:03;;;;;;;3.50;1.77;;;12.50;99.90;;;;;;4972112;28;20241;-79
2021/03/14 12:49:30;;;;;;;6.50;1.30;;;12.30;99.90;;;;;;4972385;28;20268;-78
2021/03/14 12:51:56;;;;;;;4.97;1.23;;;12.60;99.90;;;;;;4971630;28;20205;-78
2021/03/14 12:54:23;;;;;;;3.97;2.00;;;13.20;99.90;;;;;;4965336;28;20221;-79
2021/03/14 12:56:50;;;;;;;4.27;1.33;;;13.00;99.90;;;;;;4971162;28;20670;-80
2021/03/14 12:59:17;;;;;;;2.50;1.23;;;13.00;99.90;;;;;;4972112;28;20700;-81
2021/03/14 13:01:43;;;;;;;5.80;1.60;;;13.30;99.90;;;;;;4971256;28;20582;-81